Portada
METAR-TAF:

METAR-TAF

Aeropuertos :

Wapakoneta, Ohio, Estados Unidos

latitud: 40-29-37N, longitud: 084-17-53W, altitud: 278 m

Observación

El informe se hizo hace 31 minutos, a las 20:55 UTC
Viento 3 kt del sur-sureste
Temperatura 32°C
Humedad 52%
Presión 1024 hPa
Visibilidad: 16.1 km
Nubes dispersas a una altura de 4400 ft
Nubes dispersas a una altura de 5000 ft
Nubes dispersas a una altura de 6500 ft

METAR: KAXV 192055Z AUTO 15003KT 10SM SCT044 SCT050 SCT065 32/21 A3023 RMK AO2 LTG DSNT NE

Hora: 17:26 (21:26 UTC)


TAF: falta

Observaciones y pronósticos meteorológicos de más de 4000 aeropuertos (mensajes METAR y TAF).

Los puntos amarillos y rojos representan las estaciones disponibles.

Ponga el ratón en el punto deseado para ver el nombre de la estación.

Haga clic para ver las observaciones y los pronósticos meteorológicos.

Para cambiar el mapa : haga clic en los botones verdes con una cruz de color negro para hacer un zoom, en el botón verde con un guión para alejar o en las flechas verdes para mapas adyacentes.


METAR-TAF: